Time;durP1;ratioP1;P1;durP2;ratioP2;P2;SDS_P1;SDS_P2;PMS_P1;PMS_P2;Temp;Humidity;BMP_temperature;BMP_pressure;BME280_temperature;BME280_humidity;BME280_pressure;Samples;Min_cycle;Max_cycle;Signal;HPM_P1;HPM_P2
2023/08/23 00:00:11;;;;;;;4.77;3.17;;;18.00;99.90;;;;;;5051093;28;20722;-84
2023/08/23 00:02:38;;;;;;;7.40;3.93;;;18.00;99.90;;;;;;5027667;28;20491;-85
2023/08/23 00:05:07;;;;;;;5.33;3.83;;;18.00;99.90;;;;;;5036704;28;21043;-85
2023/08/23 00:07:33;;;;;;;5.70;3.93;;;17.90;99.90;;;;;;5024367;28;20536;-83
2023/08/23 00:10:00;;;;;;;5.93;3.63;;;17.90;99.90;;;;;;5035790;28;20459;-81
2023/08/23 00:12:27;;;;;;;4.93;3.60;;;17.90;99.90;;;;;;5034011;28;20526;-81
2023/08/23 00:14:54;;;;;;;7.20;4.17;;;17.90;99.90;;;;;;5016314;28;20458;-82
2023/08/23 00:17:21;;;;;;;5.57;3.70;;;17.80;99.90;;;;;;5034017;28;20467;-82
2023/08/23 00:19:47;;;;;;;5.20;3.47;;;17.80;99.90;;;;;;5034206;28;20558;-82
2023/08/23 00:22:16;;;;;;;3.90;3.00;;;17.80;99.90;;;;;;5028613;28;20470;-83
2023/08/23 00:24:42;;;;;;;4.13;3.40;;;17.80;99.90;;;;;;5014156;28;20954;-83
2023/08/23 00:27:09;;;;;;;5.93;3.50;;;17.80;99.90;;;;;;5012967;28;20460;-83
2023/08/23 00:29:37;;;;;;;4.60;3.73;;;17.80;99.90;;;;;;5015194;28;20970;-84
2023/08/23 00:32:04;;;;;;;4.50;3.13;;;17.80;99.90;;;;;;5023939;28;20475;-84
2023/08/23 00:34:31;;;;;;;7.30;3.50;;;17.70;99.90;;;;;;5037158;28;20547;-85
2023/08/23 00:36:58;;;;;;;5.50;3.83;;;17.70;99.90;;;;;;5040367;28;20455;-84
2023/08/23 00:39:26;;;;;;;7.73;3.60;;;17.80;99.90;;;;;;5040083;28;20985;-84
2023/08/23 00:41:53;;;;;;;4.17;3.27;;;17.70;99.90;;;;;;5020588;28;20477;-84
2023/08/23 00:44:20;;;;;;;4.17;3.20;;;17.70;99.90;;;;;;5025267;28;20830;-85
2023/08/23 00:46:47;;;;;;;4.70;3.40;;;17.70;99.90;;;;;;5026365;28;20533;-85
2023/08/23 00:49:14;;;;;;;4.83;3.70;;;17.70;99.90;;;;;;5020778;28;20825;-85
2023/08/23 00:51:42;;;;;;;5.00;3.93;;;17.70;99.90;;;;;;5024287;28;20527;-84
2023/08/23 00:54:11;;;;;;;5.70;3.40;;;17.70;99.90;;;;;;5036709;28;20456;-84
2023/08/23 00:56:39;;;;;;;5.00;3.30;;;17.70;99.90;;;;;;5022175;28;20484;-85
2023/08/23 00:59:08;;;;;;;4.17;3.50;;;17.60;99.90;;;;;;5025182;28;20449;-85
2023/08/23 01:01:35;;;;;;;4.13;3.57;;;17.70;99.90;;;;;;5021363;28;20478;-84
2023/08/23 01:04:02;;;;;;;4.80;3.57;;;17.60;99.90;;;;;;5022137;28;20540;-85
2023/08/23 01:06:37;;;;;;;15.43;3.60;;;17.60;99.90;;;;;;5031607;28;20524;-84
2023/08/23 01:09:13;;;;;;;4.87;3.60;;;17.60;99.90;;;;;;5036023;28;20452;-85
2023/08/23 01:11:48;;;;;;;6.20;3.37;;;17.60;99.90;;;;;;5032769;28;20495;-84
2023/08/23 01:14:21;;;;;;;4.97;3.20;;;17.60;99.90;;;;;;5015375;28;20449;-84
2023/08/23 01:16:49;;;;;;;3.03;2.70;;;17.60;99.90;;;;;;5015757;28;20430;-84
2023/08/23 01:19:37;;;;;;;7.20;5.10;;;17.50;99.90;;;;;;5017094;28;20460;-83
2023/08/23 01:22:05;;;;;;;6.13;3.70;;;17.50;99.90;;;;;;5025717;28;20473;-84
2023/08/23 01:24:34;;;;;;;5.37;3.47;;;17.50;99.90;;;;;;5015634;28;20488;-83
2023/08/23 01:27:01;;;;;;;5.30;3.20;;;17.50;99.90;;;;;;5016107;28;20541;-83
2023/08/23 01:29:28;;;;;;;5.13;3.83;;;17.50;99.90;;;;;;5015351;28;20464;-84
2023/08/23 01:32:00;;;;;;;6.20;3.70;;;17.50;99.90;;;;;;5026118;28;21055;-82
2023/08/23 01:34:30;;;;;;;5.33;3.40;;;17.50;99.90;;;;;;5015852;28;20511;-84
2023/08/23 01:36:59;;;;;;;5.07;3.80;;;17.40;99.90;;;;;;5015448;28;20492;-83
2023/08/23 01:39:26;;;;;;;4.30;3.80;;;17.40;99.90;;;;;;5015360;28;20460;-84
2023/08/23 01:41:56;;;;;;;7.70;4.00;;;17.40;99.90;;;;;;5025878;28;20490;-83
2023/08/23 01:44:23;;;;;;;5.70;4.03;;;17.40;99.90;;;;;;5024360;28;20562;-84
2023/08/23 01:46:50;;;;;;;5.30;3.50;;;17.40;99.90;;;;;;5015385;28;20449;-83
2023/08/23 01:49:17;;;;;;;4.50;4.10;;;17.40;99.90;;;;;;5016549;28;20450;-83
2023/08/23 01:51:43;;;;;;;4.40;3.50;;;17.30;99.90;;;;;;5028832;28;20479;-83
2023/08/23 01:54:10;;;;;;;4.33;2.90;;;17.40;99.90;;;;;;5030374;28;20463;-84
2023/08/23 01:56:37;;;;;;;4.60;3.50;;;17.40;99.90;;;;;;5019433;28;20464;-83
2023/08/23 01:59:05;;;;;;;6.17;4.17;;;17.30;99.90;;;;;;5028630;28;20975;-83
2023/08/23 02:01:32;;;;;;;4.77;3.50;;;17.30;99.90;;;;;;5035969;28;20508;-83
2023/08/23 02:03:59;;;;;;;4.17;3.70;;;17.40;99.90;;;;;;5054860;28;20497;-84
2023/08/23 02:06:26;;;;;;;7.93;4.13;;;17.30;99.90;;;;;;5056016;28;20829;-84
2023/08/23 02:08:53;;;;;;;4.67;4.17;;;17.30;99.90;;;;;;5055303;28;20461;-84
2023/08/23 02:11:19;;;;;;;10.93;4.40;;;17.40;99.90;;;;;;5034391;28;20552;-83
2023/08/23 02:13:46;;;;;;;5.23;3.80;;;17.40;99.90;;;;;;5040597;28;20437;-83
2023/08/23 02:16:14;;;;;;;5.53;4.03;;;17.30;99.90;;;;;;5051865;28;20455;-83
2023/08/23 02:18:41;;;;;;;7.97;4.00;;;17.30;99.90;;;;;;5046374;28;20448;-82
2023/08/23 02:21:08;;;;;;;4.40;4.00;;;17.30;99.90;;;;;;5038554;28;20453;-83
2023/08/23 02:23:35;;;;;;;7.83;3.90;;;17.30;99.90;;;;;;5035172;28;20586;-83
2023/08/23 02:26:01;;;;;;;7.23;3.47;;;17.30;99.90;;;;;;5036762;28;20459;-84
2023/08/23 02:28:28;;;;;;;5.40;3.97;;;17.30;99.90;;;;;;5040582;28;20448;-83
2023/08/23 02:31:02;;;;;;;7.63;3.87;;;17.30;99.90;;;;;;5020217;28;20485;-83
2023/08/23 02:33:30;;;;;;;3.93;3.53;;;17.30;99.90;;;;;;5014586;28;20468;-84
2023/08/23 02:35:57;;;;;;;5.60;3.80;;;17.30;99.90;;;;;;5014244;28;20463;-83
2023/08/23 02:38:24;;;;;;;6.60;4.20;;;17.20;99.90;;;;;;5024211;28;20445;-83
2023/08/23 02:40:51;;;;;;;5.53;4.27;;;17.20;99.90;;;;;;5026697;28;20492;-83
2023/08/23 02:43:18;;;;;;;4.70;3.50;;;17.20;99.90;;;;;;5015240;28;20484;-84
2023/08/23 02:45:45;;;;;;;4.87;4.03;;;17.20;99.90;;;;;;5014656;28;20455;-83
2023/08/23 02:48:12;;;;;;;4.87;3.60;;;17.20;99.90;;;;;;5014087;28;20995;-83
2023/08/23 02:50:42;;;;;;;6.83;4.17;;;17.10;99.90;;;;;;5015166;28;20440;-81
2023/08/23 02:53:09;;;;;;;6.20;4.20;;;17.20;99.90;;;;;;5019510;28;20508;-84
2023/08/23 02:55:36;;;;;;;7.80;3.83;;;17.10;99.90;;;;;;5020462;28;20457;-83
2023/08/23 02:58:03;;;;;;;4.80;3.60;;;17.10;99.90;;;;;;5013961;28;20464;-84
2023/08/23 03:00:30;;;;;;;5.73;4.00;;;17.10;99.90;;;;;;5019921;28;20490;-82
2023/08/23 03:02:57;;;;;;;5.07;3.97;;;17.10;99.90;;;;;;5013838;28;20480;-84
2023/08/23 03:05:24;;;;;;;5.53;3.47;;;17.10;99.90;;;;;;5013841;28;20599;-83
2023/08/23 03:07:52;;;;;;;4.20;3.47;;;17.00;99.90;;;;;;5014763;28;20461;-84
2023/08/23 03:10:19;;;;;;;5.93;4.00;;;17.10;99.90;;;;;;5014227;28;20482;-83
2023/08/23 03:12:46;;;;;;;4.40;3.40;;;17.00;99.90;;;;;;5021050;28;20504;-84
2023/08/23 03:15:12;;;;;;;4.87;4.00;;;17.00;99.90;;;;;;5014968;28;20453;-83
2023/08/23 03:17:39;;;;;;;7.27;3.60;;;17.00;99.90;;;;;;5029201;28;20476;-83
2023/08/23 03:20:07;;;;;;;5.70;3.53;;;17.00;99.90;;;;;;5026804;28;20468;-84
2023/08/23 03:22:34;;;;;;;4.93;3.53;;;17.00;99.90;;;;;;5013568;28;21005;-84
2023/08/23 03:25:02;;;;;;;4.40;3.17;;;17.00;99.90;;;;;;5014156;28;20584;-83
2023/08/23 03:27:29;;;;;;;6.03;3.90;;;17.00;99.90;;;;;;5014578;28;20494;-84
2023/08/23 03:29:56;;;;;;;5.20;3.63;;;16.90;99.90;;;;;;5018013;28;20839;-84
2023/08/23 03:32:23;;;;;;;4.17;3.67;;;17.00;99.90;;;;;;5032886;28;20489;-83
2023/08/23 03:34:50;;;;;;;7.70;3.80;;;17.00;99.90;;;;;;5047577;28;20456;-84
2023/08/23 03:37:17;;;;;;;5.20;3.43;;;17.00;99.90;;;;;;5038971;28;20539;-84
2023/08/23 03:39:44;;;;;;;6.70;3.40;;;17.00;99.90;;;;;;5032099;28;20465;-84
2023/08/23 03:42:12;;;;;;;5.27;3.83;;;16.90;99.90;;;;;;5034029;28;20878;-85
2023/08/23 03:44:39;;;;;;;6.17;3.90;;;16.90;99.90;;;;;;5037576;28;21015;-85
2023/08/23 03:47:05;;;;;;;4.90;3.53;;;16.90;99.90;;;;;;5036738;28;20451;-82
2023/08/23 03:49:32;;;;;;;9.07;3.60;;;16.90;99.90;;;;;;5035209;28;20456;-83
2023/08/23 03:51:59;;;;;;;5.57;3.60;;;16.90;99.90;;;;;;5034540;28;20483;-84
2023/08/23 03:54:26;;;;;;;5.57;3.83;;;16.90;99.90;;;;;;5034109;28;20961;-83
2023/08/23 03:56:52;;;;;;;5.40;4.73;;;16.90;99.90;;;;;;5034425;28;20485;-83
2023/08/23 03:59:21;;;;;;;8.03;4.10;;;16.90;99.90;;;;;;5030449;28;20456;-83
2023/08/23 04:01:47;;;;;;;5.57;3.50;;;16.90;99.90;;;;;;5016153;28;20462;-83
2023/08/23 04:04:14;;;;;;;6.67;3.83;;;16.90;99.90;;;;;;5013607;28;20568;-82
2023/08/23 04:06:41;;;;;;;5.00;4.20;;;16.90;99.90;;;;;;5013347;28;20448;-82
2023/08/23 04:09:08;;;;;;;5.80;4.77;;;16.90;99.90;;;;;;5013793;28;20473;-82
2023/08/23 04:11:35;;;;;;;4.40;4.00;;;16.90;99.90;;;;;;5018373;28;20480;-82
2023/08/23 04:14:02;;;;;;;6.40;4.37;;;16.90;99.90;;;;;;5019505;28;20467;-82
2023/08/23 04:16:30;;;;;;;7.27;4.87;;;16.80;99.90;;;;;;5039598;28;20546;-82
2023/08/23 04:18:57;;;;;;;5.33;4.27;;;16.80;99.90;;;;;;5044649;28;20462;-84
2023/08/23 04:21:24;;;;;;;6.00;4.17;;;16.80;99.90;;;;;;5046295;28;20451;-83
2023/08/23 04:23:52;;;;;;;5.30;3.50;;;16.80;99.90;;;;;;5037567;28;20537;-82
2023/08/23 04:26:19;;;;;;;9.30;4.00;;;16.80;99.90;;;;;;5037099;28;20473;-84
2023/08/23 04:28:46;;;;;;;4.97;3.97;;;16.80;99.90;;;;;;5037145;28;20518;-83
2023/08/23 04:31:13;;;;;;;5.37;3.93;;;16.80;99.90;;;;;;5023054;28;20989;-82
2023/08/23 04:33:42;;;;;;;5.10;4.50;;;16.80;99.90;;;;;;5017226;28;20462;-83
2023/08/23 04:36:09;;;;;;;5.40;4.17;;;16.80;99.90;;;;;;5017459;28;20446;-82
2023/08/23 04:38:36;;;;;;;6.90;4.10;;;16.80;99.90;;;;;;5021050;28;20626;-82
2023/08/23 04:41:05;;;;;;;6.00;4.27;;;16.80;99.90;;;;;;5037201;28;20977;-83
2023/08/23 04:43:31;;;;;;;6.00;4.73;;;16.80;99.90;;;;;;5054637;23;21082;-83
2023/08/23 04:46:00;;;;;;;7.03;4.83;;;16.80;99.90;;;;;;5039776;28;20465;-83
2023/08/23 04:48:26;;;;;;;5.93;4.37;;;16.80;99.90;;;;;;5042438;28;20447;-82
2023/08/23 04:50:58;;;;;;;5.77;4.00;;;16.90;99.90;;;;;;5040186;28;20457;-82
2023/08/23 04:53:25;;;;;;;5.13;4.60;;;16.90;99.90;;;;;;5026792;28;20925;-83
2023/08/23 04:55:57;;;;;;;4.80;3.97;;;16.90;99.90;;;;;;5018115;28;20541;-83
2023/08/23 04:58:29;;;;;;;7.13;4.10;;;16.90;99.90;;;;;;5020468;28;20509;-83
2023/08/23 05:00:58;;;;;;;7.30;5.20;;;16.90;99.90;;;;;;5017449;28;20456;-83
2023/08/23 05:03:25;;;;;;;6.60;4.07;;;16.90;99.90;;;;;;5017275;28;20561;-84
2023/08/23 05:05:52;;;;;;;6.33;4.43;;;16.80;99.90;;;;;;5022350;28;20484;-83
2023/08/23 05:08:20;;;;;;;5.90;4.80;;;16.90;99.90;;;;;;5024065;28;20445;-83
2023/08/23 05:10:52;;;;;;;7.60;5.27;;;16.90;99.90;;;;;;5032335;28;20538;-80
2023/08/23 05:13:18;;;;;;;8.00;4.73;;;16.90;99.90;;;;;;5024136;28;20486;-80
2023/08/23 05:15:45;;;;;;;6.80;4.93;;;16.90;99.90;;;;;;5020460;28;20453;-80
2023/08/23 05:18:13;;;;;;;7.23;5.00;;;16.90;99.90;;;;;;5016506;28;20455;-81
2023/08/23 05:20:39;;;;;;;4.73;4.13;;;17.00;99.90;;;;;;5016542;28;20472;-80
2023/08/23 05:23:06;;;;;;;4.60;4.10;;;17.00;99.90;;;;;;5016252;28;20474;-78
2023/08/23 05:25:34;;;;;;;7.80;4.50;;;17.00;99.90;;;;;;5016054;28;20587;-81
2023/08/23 05:28:01;;;;;;;6.03;4.50;;;17.00;99.90;;;;;;5017258;28;20460;-80
2023/08/23 05:30:28;;;;;;;10.60;6.10;;;17.10;99.90;;;;;;5015974;28;20453;-80
2023/08/23 05:32:55;;;;;;;4.73;4.10;;;17.10;99.90;;;;;;5015782;28;20862;-80
2023/08/23 05:35:22;;;;;;;8.27;4.90;;;17.10;99.90;;;;;;5015926;28;20450;-80
2023/08/23 05:37:48;;;;;;;7.73;4.90;;;17.20;99.90;;;;;;5015736;28;20531;-80
2023/08/23 05:40:15;;;;;;;9.17;5.37;;;17.20;99.90;;;;;;5015485;28;20836;-80
2023/08/23 05:42:44;;;;;;;7.57;4.67;;;17.30;99.90;;;;;;5015603;28;20496;-80
2023/08/23 05:45:11;;;;;;;10.80;5.90;;;17.30;99.90;;;;;;5015000;28;20503;-80
2023/08/23 05:47:38;;;;;;;9.40;4.97;;;17.40;99.90;;;;;;5015438;28;20520;-82
2023/08/23 05:50:05;;;;;;;6.27;3.90;;;17.40;99.90;;;;;;5008582;28;20481;-79
2023/08/23 05:52:32;;;;;;;6.77;5.20;;;17.50;99.90;;;;;;5015209;28;20492;-79
2023/08/23 05:54:59;;;;;;;7.57;5.07;;;17.50;99.90;;;;;;5015221;28;20448;-79
2023/08/23 05:57:26;;;;;;;5.93;4.53;;;17.50;99.90;;;;;;5014966;28;20991;-79
2023/08/23 05:59:54;;;;;;;6.13;5.00;;;17.60;99.90;;;;;;5014920;28;20457;-78
2023/08/23 06:02:21;;;;;;;7.13;5.40;;;17.70;99.90;;;;;;5015098;28;20485;-79
2023/08/23 06:04:48;;;;;;;7.03;5.80;;;17.70;99.90;;;;;;5015051;28;20530;-79
2023/08/23 06:07:15;;;;;;;7.07;5.07;;;17.80;99.90;;;;;;5013987;28;20453;-79
2023/08/23 06:09:42;;;;;;;9.40;6.13;;;17.90;99.90;;;;;;5015591;28;20502;-80
2023/08/23 06:12:09;;;;;;;9.70;6.10;;;18.00;99.90;;;;;;5015329;28;20473;-81
2023/08/23 06:14:35;;;;;;;8.90;5.60;;;18.10;99.90;;;;;;5015191;28;21029;-83
2023/08/23 06:17:03;;;;;;;8.73;6.40;;;18.20;99.90;;;;;;5011702;28;20529;-80
2023/08/23 06:19:31;;;;;;;10.27;7.57;;;18.30;99.90;;;;;;5011329;28;20203;-80
2023/08/23 06:21:58;;;;;;;8.50;6.33;;;18.40;99.90;;;;;;5013634;28;20544;-80
2023/08/23 06:24:25;;;;;;;8.57;7.43;;;18.40;99.90;;;;;;5014016;28;20484;-83
2023/08/23 06:26:52;;;;;;;12.20;7.83;;;18.50;99.90;;;;;;5016569;28;20458;-82
2023/08/23 06:29:19;;;;;;;15.37;7.60;;;18.50;99.90;;;;;;5017771;28;20452;-80
2023/08/23 06:31:45;;;;;;;10.77;7.07;;;18.60;99.90;;;;;;5012406;28;21022;-83
2023/08/23 06:34:14;;;;;;;11.90;7.70;;;18.70;99.90;;;;;;5015716;28;20446;-81
2023/08/23 06:36:40;;;;;;;12.33;7.80;;;18.80;99.90;;;;;;5015093;28;20456;-80
2023/08/23 06:39:07;;;;;;;8.33;6.87;;;18.90;99.90;;;;;;5015463;28;20835;-79
2023/08/23 06:41:34;;;;;;;11.60;7.33;;;19.00;99.90;;;;;;5015084;28;20481;-83
2023/08/23 06:44:02;;;;;;;11.90;7.40;;;19.10;99.90;;;;;;5015893;28;20477;-80
2023/08/23 06:46:29;;;;;;;9.80;7.37;;;19.10;99.90;;;;;;5011537;28;20588;-81
2023/08/23 06:48:56;;;;;;;15.23;11.57;;;19.20;99.90;;;;;;5006890;28;20532;-82
2023/08/23 06:51:27;;;;;;;10.47;9.07;;;19.20;99.90;;;;;;5015028;28;21021;-80
2023/08/23 06:53:54;;;;;;;14.57;8.83;;;19.20;99.90;;;;;;5014425;28;20486;-78
2023/08/23 06:56:21;;;;;;;11.97;7.67;;;19.20;99.90;;;;;;5014910;28;20442;-81
2023/08/23 06:58:48;;;;;;;12.43;8.07;;;19.20;99.90;;;;;;5015671;28;20820;-79
2023/08/23 07:01:16;;;;;;;14.90;9.53;;;19.20;99.90;;;;;;4993733;28;20468;-79
2023/08/23 07:03:43;;;;;;;13.70;9.63;;;19.20;99.90;;;;;;5006307;28;20474;-80
2023/08/23 07:06:11;;;;;;;12.17;9.27;;;19.30;99.90;;;;;;5007013;28;20494;-80
2023/08/23 07:08:41;;;;;;;10.53;7.80;;;19.20;99.90;;;;;;5012102;28;20545;-81
2023/08/23 07:11:08;;;;;;;15.40;10.00;;;19.30;99.90;;;;;;5011084;28;21073;-81
2023/08/23 07:13:36;;;;;;;12.00;8.23;;;19.30;99.90;;;;;;5001846;28;20497;-80
2023/08/23 07:16:03;;;;;;;11.87;8.47;;;19.30;99.90;;;;;;5009329;28;20979;-79
2023/08/23 07:18:30;;;;;;;14.90;9.40;;;19.40;99.90;;;;;;5016347;28;20448;-83
2023/08/23 07:20:57;;;;;;;13.30;8.10;;;19.50;99.90;;;;;;5012930;28;20445;-82
2023/08/23 07:23:24;;;;;;;14.40;9.17;;;19.50;99.90;;;;;;4997217;28;20538;-81
2023/08/23 07:25:52;;;;;;;12.37;8.13;;;19.60;99.90;;;;;;5013989;28;21060;-81
2023/08/23 07:28:19;;;;;;;10.60;8.70;;;19.70;99.90;;;;;;5013911;28;20457;-82
2023/08/23 07:30:46;;;;;;;11.50;7.97;;;19.80;99.90;;;;;;5015351;28;20457;-79
2023/08/23 07:33:13;;;;;;;14.50;9.10;;;19.80;99.90;;;;;;5016150;28;20473;-80
2023/08/23 07:35:40;;;;;;;11.70;7.70;;;19.80;99.90;;;;;;5019147;28;20453;-81
2023/08/23 07:38:09;;;;;;;15.97;8.90;;;19.90;99.90;;;;;;5017134;28;20454;-82
2023/08/23 07:40:37;;;;;;;12.40;8.63;;;19.90;99.90;;;;;;5012259;28;20461;-79
2023/08/23 07:43:05;;;;;;;10.93;7.60;;;20.00;99.90;;;;;;5014469;28;21029;-81
2023/08/23 07:45:32;;;;;;;14.03;9.07;;;20.10;99.90;;;;;;5014352;28;20497;-80
2023/08/23 07:47:59;;;;;;;11.83;9.40;;;20.10;99.90;;;;;;5010723;28;20546;-81
2023/08/23 07:50:26;;;;;;;11.53;7.80;;;20.20;99.90;;;;;;5000705;28;20442;-78
2023/08/23 07:52:54;;;;;;;10.13;7.63;;;20.20;99.90;;;;;;5011193;28;20485;-79
2023/08/23 07:55:21;;;;;;;12.50;7.90;;;20.30;99.90;;;;;;5012404;28;20463;-80
2023/08/23 07:57:47;;;;;;;9.97;7.47;;;20.40;99.90;;;;;;5014362;28;20450;-83
2023/08/23 08:00:17;;;;;;;11.10;7.93;;;20.50;99.90;;;;;;5014150;28;20458;-80
2023/08/23 08:02:44;;;;;;;10.03;8.27;;;20.60;99.90;;;;;;5009045;28;20534;-82
2023/08/23 08:05:11;;;;;;;12.73;8.30;;;20.60;99.90;;;;;;5006162;28;20520;-82
2023/08/23 08:07:38;;;;;;;9.33;7.30;;;20.70;99.90;;;;;;5010857;28;20466;-81
2023/08/23 08:10:05;;;;;;;15.03;8.00;;;20.80;99.90;;;;;;5010279;28;20458;-81
2023/08/23 08:12:32;;;;;;;16.60;8.30;;;20.90;99.90;;;;;;5005910;28;20562;-84
2023/08/23 08:14:59;;;;;;;11.23;7.90;;;21.00;99.90;;;;;;5011418;28;20545;-83
2023/08/23 08:17:27;;;;;;;10.40;8.27;;;21.00;99.90;;;;;;5012007;28;20465;-81
2023/08/23 08:19:54;;;;;;;14.17;8.80;;;21.10;99.90;;;;;;5011801;28;20454;-85
2023/08/23 08:22:21;;;;;;;11.30;7.70;;;21.20;99.90;;;;;;5009453;28;20478;-82
2023/08/23 08:24:48;;;;;;;8.57;6.63;;;21.20;99.90;;;;;;5010353;28;20450;-79
2023/08/23 08:27:14;;;;;;;14.47;6.90;;;21.30;99.90;;;;;;5012308;28;20466;-83
2023/08/23 08:29:41;;;;;;;8.53;7.10;;;21.40;99.90;;;;;;5011749;28;20446;-79
2023/08/23 08:32:08;;;;;;;13.40;8.43;;;21.50;99.90;;;;;;5012159;28;20568;-81
2023/08/23 08:34:36;;;;;;;12.10;5.73;;;21.60;99.90;;;;;;5014861;28;20453;-82
2023/08/23 08:37:04;;;;;;;11.23;7.53;;;21.60;99.90;;;;;;5015032;28;20460;-83
2023/08/23 08:39:30;;;;;;;8.43;5.30;;;21.60;99.90;;;;;;5009256;28;20464;-79
2023/08/23 08:41:57;;;;;;;9.93;6.77;;;21.80;99.90;;;;;;5012209;28;20446;-85
2023/08/23 08:44:25;;;;;;;9.87;6.53;;;21.80;99.90;;;;;;5013279;28;20520;-86
2023/08/23 08:46:52;;;;;;;9.10;7.60;;;22.00;99.90;;;;;;5012545;28;20501;-85
2023/08/23 08:49:20;;;;;;;7.33;5.07;;;22.00;99.90;;;;;;5007890;28;20453;-80
2023/08/23 08:51:49;;;;;;;9.33;5.30;;;22.20;99.90;;;;;;5014106;28;20533;-81
2023/08/23 08:54:17;;;;;;;8.80;5.90;;;22.30;99.90;;;;;;5014500;28;20469;-83
2023/08/23 08:56:47;;;;;;;8.80;5.17;;;22.30;99.90;;;;;;5016353;28;20491;-85
2023/08/23 08:59:15;;;;;;;11.95;7.28;;;22.40;99.90;;;;;;5016205;28;20451;-82
2023/08/23 09:01:44;;;;;;;12.37;5.73;;;22.50;99.90;;;;;;5019122;28;20217;-84
2023/08/23 09:04:11;;;;;;;10.73;5.20;;;22.70;99.90;;;;;;5018153;28;20914;-82
2023/08/23 09:06:40;;;;;;;7.13;6.10;;;22.80;99.90;;;;;;5017880;28;20508;-84
2023/08/23 09:09:08;;;;;;;9.13;5.57;;;23.00;99.90;;;;;;5018985;28;20477;-83
2023/08/23 09:11:35;;;;;;;8.50;4.60;;;23.10;99.90;;;;;;5018580;28;21296;-83
2023/08/23 09:14:14;;;;;;;9.50;5.83;;;23.20;99.90;;;;;;5018917;28;20556;-84
2023/08/23 09:16:40;;;;;;;8.10;5.80;;;23.20;99.90;;;;;;5019389;28;20521;-82
2023/08/23 09:19:09;;;;;;;7.73;6.10;;;23.20;99.90;;;;;;5015525;28;20984;-82
2023/08/23 09:21:36;;;;;;;7.17;5.27;;;23.30;99.90;;;;;;5014565;28;20446;-85
2023/08/23 09:24:04;;;;;;;8.00;5.43;;;23.40;99.90;;;;;;5019392;28;20536;-84
2023/08/23 09:26:32;;;;;;;6.50;5.10;;;23.40;99.90;;;;;;5019114;28;21068;-83
2023/08/23 09:28:59;;;;;;;8.87;4.17;;;23.40;99.90;;;;;;5016754;28;20453;-81
2023/08/23 09:31:27;;;;;;;8.97;5.80;;;23.70;99.90;;;;;;5018681;28;20485;-84
2023/08/23 09:33:54;;;;;;;6.53;3.90;;;23.80;99.90;;;;;;5014198;28;20476;-83
2023/08/23 09:36:28;;;;;;;6.80;5.10;;;23.90;99.90;;;;;;5011737;28;20513;-81
2023/08/23 09:38:54;;;;;;;7.87;4.70;;;24.10;99.90;;;;;;5018880;28;20453;-83
2023/08/23 09:41:22;;;;;;;5.53;3.80;;;24.30;99.90;;;;;;5016110;28;20506;-82
2023/08/23 09:43:54;;;;;;;11.80;5.00;;;24.50;99.90;;;;;;5015679;28;20545;-83
2023/08/23 09:46:25;;;;;;;10.97;7.67;;;24.60;99.90;;;;;;5018329;28;20493;-85
2023/08/23 09:48:53;;;;;;;8.20;5.00;;;24.80;99.90;;;;;;5017589;28;20449;-82
2023/08/23 09:51:23;;;;;;;7.57;4.90;;;25.10;99.90;;;;;;5021867;28;20457;-82
2023/08/23 09:53:54;;;;;;;6.40;4.00;;;25.20;99.90;;;;;;5017569;28;20508;-81
2023/08/23 09:56:21;;;;;;;5.63;3.40;;;25.40;99.90;;;;;;5019156;28;20438;-85
2023/08/23 09:58:49;;;;;;;6.60;5.20;;;25.60;99.90;;;;;;5017507;28;21019;-83
2023/08/23 10:01:17;;;;;;;5.73;4.33;;;25.70;99.90;;;;;;5017837;28;20549;-84
2023/08/23 10:03:44;;;;;;;7.83;6.17;;;25.70;99.90;;;;;;5017930;28;20497;-83
2023/08/23 10:06:11;;;;;;;6.70;4.83;;;25.60;99.90;;;;;;5015758;28;20496;-82
2023/08/23 10:08:39;;;;;;;10.23;4.20;;;25.80;99.90;;;;;;5016571;28;20540;-82
2023/08/23 10:11:06;;;;;;;5.27;3.30;;;25.90;99.90;;;;;;5014296;28;20505;-80
2023/08/23 10:13:35;;;;;;;8.77;5.87;;;26.20;99.90;;;;;;5018099;28;20466;-84
2023/08/23 10:16:06;;;;;;;7.87;4.00;;;26.40;99.90;;;;;;5014261;28;20497;-83
2023/08/23 10:18:35;;;;;;;14.37;4.50;;;26.60;99.90;;;;;;5020212;28;20485;-83
2023/08/23 10:21:03;;;;;;;5.07;3.37;;;26.80;99.90;;;;;;5018741;28;20493;-84
2023/08/23 10:23:36;;;;;;;4.47;3.47;;;27.10;99.90;;;;;;5017889;28;20474;-81
2023/08/23 10:26:03;;;;;;;6.40;3.53;;;27.30;99.90;;;;;;5017086;28;20481;-81
2023/08/23 10:28:30;;;;;;;5.60;3.60;;;27.60;99.90;;;;;;5010841;28;20581;-79
2023/08/23 10:31:01;;;;;;;8.03;3.47;;;27.60;99.90;;;;;;5006376;28;20541;-79
2023/08/23 10:33:32;;;;;;;4.40;3.13;;;27.40;99.90;;;;;;5003066;28;20477;-80
2023/08/23 10:35:59;;;;;;;5.80;4.00;;;27.20;99.90;;;;;;5017659;28;20508;-79
2023/08/23 10:38:27;;;;;;;5.67;3.03;;;26.90;99.90;;;;;;5017088;28;20484;-79
2023/08/23 10:40:54;;;;;;;4.90;2.50;;;26.80;99.90;;;;;;5016350;28;20462;-78
2023/08/23 10:43:21;;;;;;;4.60;3.63;;;26.40;99.90;;;;;;5043173;23;20504;-82
2023/08/23 10:45:50;;;;;;;6.40;3.27;;;26.20;99.90;;;;;;5037229;28;20488;-80
2023/08/23 10:48:18;;;;;;;4.70;3.30;;;25.90;99.90;;;;;;5037612;28;20457;-80
2023/08/23 10:50:47;;;;;;;4.90;2.80;;;25.70;99.90;;;;;;5037134;28;20979;-81
2023/08/23 10:53:16;;;;;;;5.60;3.00;;;25.50;99.90;;;;;;5037868;28;20471;-81
2023/08/23 10:55:43;;;;;;;6.03;3.30;;;25.30;99.90;;;;;;5038585;28;20540;-82
2023/08/23 10:58:10;;;;;;;8.70;2.87;;;25.20;99.90;;;;;;5038659;28;20536;-81
2023/08/23 11:00:37;;;;;;;6.73;3.67;;;25.50;99.90;;;;;;5038099;28;20547;-80
2023/08/23 11:03:05;;;;;;;11.00;4.03;;;25.80;99.90;;;;;;5037645;28;20483;-81
2023/08/23 11:05:33;;;;;;;6.50;4.40;;;25.80;99.90;;;;;;5037992;28;20517;-80
2023/08/23 11:08:02;;;;;;;7.53;3.67;;;25.70;99.90;;;;;;5037168;28;20952;-83
2023/08/23 11:10:29;;;;;;;7.80;5.13;;;25.80;99.90;;;;;;5036841;28;20452;-80
2023/08/23 11:12:56;;;;;;;7.33;4.03;;;26.20;99.90;;;;;;5035095;28;20544;-81
2023/08/23 11:15:23;;;;;;;7.00;4.30;;;26.60;99.90;;;;;;5034935;28;20895;-80
2023/08/23 11:17:50;;;;;;;5.60;4.10;;;26.70;99.90;;;;;;5034560;28;21076;-81
2023/08/23 11:20:17;;;;;;;7.07;3.20;;;26.70;99.90;;;;;;5035035;28;20943;-81
2023/08/23 11:22:44;;;;;;;5.83;2.87;;;26.50;99.90;;;;;;5035615;28;20480;-82
2023/08/23 11:25:12;;;;;;;5.70;3.93;;;26.40;99.90;;;;;;5035550;28;20467;-81
2023/08/23 11:27:39;;;;;;;3.80;2.80;;;26.40;99.90;;;;;;5035696;28;20555;-81
2023/08/23 11:30:08;;;;;;;3.97;2.80;;;26.50;99.90;;;;;;5031142;28;20467;-83
2023/08/23 11:32:37;;;;;;;4.63;2.40;;;26.50;99.90;;;;;;5040371;28;20483;-81
2023/08/23 11:35:06;;;;;;;7.20;2.40;;;26.90;99.90;;;;;;5033551;28;20460;-82
2023/08/23 11:37:32;;;;;;;5.47;3.00;;;27.00;99.90;;;;;;5034424;28;20947;-81
2023/08/23 11:40:00;;;;;;;3.57;2.70;;;26.90;99.90;;;;;;5033959;28;20480;-81
2023/08/23 11:42:29;;;;;;;6.20;3.20;;;27.10;99.90;;;;;;5044246;28;20452;-82
2023/08/23 11:44:56;;;;;;;4.70;2.47;;;27.40;99.90;;;;;;5019932;28;20461;-82
2023/08/23 11:47:26;;;;;;;7.17;3.37;;;27.60;99.90;;;;;;5015557;28;20493;-83
2023/08/23 11:49:53;;;;;;;6.80;3.17;;;27.80;99.90;;;;;;5015674;28;20992;-82
2023/08/23 11:52:20;;;;;;;4.90;2.90;;;28.00;99.90;;;;;;5023728;28;20529;-81
2023/08/23 11:54:47;;;;;;;6.83;2.97;;;28.40;99.90;;;;;;5021397;28;20564;-82
2023/08/23 11:57:18;;;;;;;4.53;3.20;;;28.50;99.90;;;;;;5031735;28;20448;-81
2023/08/23 11:59:46;;;;;;;7.10;3.50;;;28.80;99.90;;;;;;5015786;28;20438;-81
2023/08/23 12:02:13;;;;;;;4.67;2.93;;;29.00;99.90;;;;;;5034950;28;20452;-82
2023/08/23 12:04:42;;;;;;;6.40;2.73;;;29.20;99.90;;;;;;5036174;28;20544;-82
2023/08/23 12:07:09;;;;;;;4.40;2.83;;;28.90;99.90;;;;;;5035275;28;20483;-82
2023/08/23 12:09:36;;;;;;;6.10;3.20;;;28.50;99.90;;;;;;5032810;28;20937;-81
2023/08/23 12:12:05;;;;;;;6.00;3.30;;;28.50;99.90;;;;;;5023131;28;20457;-82
2023/08/23 12:14:32;;;;;;;7.07;3.33;;;28.90;99.90;;;;;;5023929;28;20479;-83
2023/08/23 12:17:00;;;;;;;5.27;3.20;;;29.20;99.90;;;;;;5016173;28;20474;-82
2023/08/23 12:19:28;;;;;;;6.50;3.27;;;29.30;99.90;;;;;;5022545;28;20445;-83
2023/08/23 12:21:56;;;;;;;4.20;3.20;;;29.40;99.90;;;;;;5024764;28;20465;-81
2023/08/23 12:24:23;;;;;;;4.03;3.00;;;29.70;99.90;;;;;;5020442;28;20473;-83
2023/08/23 12:26:50;;;;;;;4.73;3.20;;;29.90;99.90;;;;;;5017107;28;20489;-81
2023/08/23 12:29:16;;;;;;;4.20;3.10;;;30.20;99.90;;;;;;5034112;28;20456;-83
2023/08/23 12:31:43;;;;;;;7.73;3.00;;;30.30;99.90;;;;;;5030294;28;20483;-81
2023/08/23 12:34:14;;;;;;;6.07;3.43;;;30.30;99.90;;;;;;5020785;28;20483;-82
2023/08/23 12:36:41;;;;;;;5.77;3.47;;;30.40;99.90;;;;;;5021425;28;20453;-82
2023/08/23 12:39:08;;;;;;;3.97;3.30;;;30.50;99.90;;;;;;5035864;28;20452;-82
2023/08/23 12:41:36;;;;;;;4.27;2.63;;;30.60;99.90;;;;;;5049646;28;20940;-81
2023/08/23 12:44:04;;;;;;;4.90;3.33;;;30.80;99.90;;;;;;5029353;28;20485;-82
2023/08/23 12:46:31;;;;;;;4.30;2.80;;;30.70;99.90;;;;;;5036443;28;20836;-82